WetterOnline ( https://www.wetteronline.de )

Wetter aktuell Gottfrieding

Aktuelles Wetter: Gottfrieding (350m)

6-stündlich | Neueste Meldungen
Ortszeit Temperatur Wetter
Sa, 15.08. 20:00 21.9° C bedeckt
Sa, 15.08. 14:00 23.9° C wolkig
Sa, 15.08. 8:00 18.6° C bewölkt
Sa, 15.08. 2:00 18.0° C leicht bewölkt
Fr, 14.08. 20:00 22.5° C bedeckt
Fr, 14.08. 14:00 27.2° C wolkig
Fr, 14.08. 8:00 17.9° C bedeckt
Fr, 14.08. 2:00 16.5° C bedeckt
Ortszeit Temperatur Wetter
Sa, 15.08. 21:30 19.8° C bedeckt
Sa, 15.08. 21:20 19.8° C bedeckt
Sa, 15.08. 21:10 19.9° C bedeckt
Sa, 15.08. 21:00 20.1° C bewölkt
Sa, 15.08. 20:50 20.1° C bewölkt
Sa, 15.08. 20:40 20.5° C wolkig
Sa, 15.08. 20:30 21.1° C bewölkt
Sa, 15.08. 20:00 21.9° C bedeckt
Sa, 15.08. 19:30 22.2° C bedeckt
Sa, 15.08. 19:00 23.1° C bedeckt
Sa, 15.08. 18:30 23.6° C bewölkt
Ortszeit Relative Feuchte Sichtweite
Sa, 15.08. 20:00 78% 50 km
Sa, 15.08. 14:00 65% 65 km
Sa, 15.08. 8:00 95% 11 km
Sa, 15.08. 2:00 92% 18 km
Fr, 14.08. 20:00 70% 45 km
Fr, 14.08. 14:00 47% 60 km
Fr, 14.08. 8:00 93% 18 km
Fr, 14.08. 2:00 97% 19 km
Ortszeit Relative Feuchte Sichtweite
Sa, 15.08. 21:30 88% 35 km
Sa, 15.08. 21:20 88% -
Sa, 15.08. 21:10 87% -
Sa, 15.08. 21:00 85% 30 km
Sa, 15.08. 20:50 85% -
Sa, 15.08. 20:40 81% -
Sa, 15.08. 20:30 81% 55 km
Sa, 15.08. 20:00 78% 50 km
Sa, 15.08. 19:30 75% 50 km
Sa, 15.08. 19:00 69% 55 km
Sa, 15.08. 18:30 64% 55 km
Ortszeit Niederschlagsmenge Niederschlagsart
Sa, 15.08. 20:00 0.1 l/m2 in 12 Std. Regen
Sa, 15.08. 14:00 0.1 l/m2 in 6 Std. Regen
Sa, 15.08. 8:00 0.5 l/m2 in 12 Std. Regen
Sa, 15.08. 2:00 0.0 l/m2 in 6 Std. -
Fr, 14.08. 20:00 0.1 l/m2 in 12 Std. -
Fr, 14.08. 14:00 0.1 l/m2 in 6 Std. Regen
Fr, 14.08. 8:00 0.1 l/m2 in 12 Std. Regen
Fr, 14.08. 2:00 0.0 l/m2 in 6 Std. -
Ortszeit Niederschlagsmenge Niederschlagsart
Sa, 15.08. 21:30 0.0 l/m2 in 1 Std. -
Sa, 15.08. 21:20 keine Meldung -
Sa, 15.08. 21:10 keine Meldung -
Sa, 15.08. 21:00 0.0 l/m2 in 1 Std. -
Sa, 15.08. 20:50 keine Meldung -
Sa, 15.08. 20:40 keine Meldung -
Sa, 15.08. 20:30 0.0 l/m2 in 1 Std. -
Sa, 15.08. 20:00 0.0 l/m2 in 1 Std. Regen
Sa, 15.08. 19:30 0.0 l/m2 in 1 Std. -
Sa, 15.08. 19:00 0.0 l/m2 in 1 Std. -
Sa, 15.08. 18:30 0.0 l/m2 in 1 Std. -
Ortszeit Stärke Spitze Richtung
km/h Bft. km/h Grad Sektor
Sa, 15.08. 20:00 7 2 43 20° N
Sa, 15.08. 14:00 14 3 29 320° NW
Sa, 15.08. 8:00 7 2 14 250° W
Sa, 15.08. 2:00 11 2 14 250° W
Fr, 14.08. 20:00 7 2 32 250° W
Fr, 14.08. 14:00 11 2 22 190° S
Fr, 14.08. 8:00 0 0 7 - -
Fr, 14.08. 2:00 4 1 25 220° SW
Ortszeit Stärke Spitze Richtung
km/h Bft. km/h Grad Sektor
Sa, 15.08. 21:30 6 1 7 310° NW
Sa, 15.08. 21:20 6 1 - 310° NW
Sa, 15.08. 21:10 4 1 - 300° NW
Sa, 15.08. 21:00 2 1 11 260° W
Sa, 15.08. 20:50 2 1 - 260° W
Sa, 15.08. 20:40 4 1 - 260° W
Sa, 15.08. 20:30 4 1 11 10° N
Sa, 15.08. 20:00 7 2 18 20° N
Sa, 15.08. 19:30 9 2 19 360° N
Sa, 15.08. 19:00 11 2 18 360° N
Sa, 15.08. 18:30 7 2 14 340° N
Ortszeit Untergrenze Bedeckung Gattung
total tief tief mittel hoch
Sa, 15.08. 20:00 3300 m 8/8 8/8 - - -
Sa, 15.08. 14:00 870 m 8/8 2/8 - - -
Sa, 15.08. 8:00 2100 m 7/8 7/8 - - -
Sa, 15.08. 2:00 2700 m 2/8 2/8 - - -
Fr, 14.08. 20:00 3000 m 8/8 8/8 - - -
Fr, 14.08. 14:00 2400 m 7/8 1/8 - - -
Fr, 14.08. 8:00 3000 m 8/8 8/8 - - -
Fr, 14.08. 2:00 6600 m 8/8 8/8 - - -
Ortszeit Bedeckungsgrad in Achtel und Wolkenuntergrenze
Sa, 15.08. 21:30 6(3300m) 8(3900m)
Sa, 15.08. 21:20 6(3300m) 8(3900m)
Sa, 15.08. 21:10 6(3600m) 8(6600m) 8(9000m)
Sa, 15.08. 21:00 5(3900m) 8(8100m) 8(9000m)
Sa, 15.08. 20:50 5(3900m) 8(8100m) 8(9000m)
Sa, 15.08. 20:40 3(3600m) 8(8100m) 8(9000m)
Sa, 15.08. 20:30 6(3600m) 8(7800m) 8(9000m)
Sa, 15.08. 20:00 8(3300m) 8(4200m) 8(8100m)
Sa, 15.08. 19:30 8(3300m) 8(3900m)
Sa, 15.08. 19:00 7(3300m) 8(3900m)
Sa, 15.08. 18:30 1(3600m) 6(5700m) 8(7800m)
Ortszeit Luftdruck NN (hPa) Tendenz (hPa in 3 Std.)
Sa, 15.08. 20:00 1013 + 0,2
Sa, 15.08. 14:00 1013 - 0,6
Sa, 15.08. 8:00 1014 + 0,3
Sa, 15.08. 2:00 1014 + 0,3
Fr, 14.08. 20:00 1013 + 1,1
Fr, 14.08. 14:00 1013 - 1,2
Fr, 14.08. 8:00 1015 + 0,3
Fr, 14.08. 2:00 1016 0,0
Ortszeit Luftdruck NN (hPa) Tendenz (hPa in 3 Std.)
Sa, 15.08. 21:30 1014 + 0,4
Sa, 15.08. 21:20 1014 keine Meldung
Sa, 15.08. 21:10 1014 keine Meldung
Sa, 15.08. 21:00 1014 + 0,3
Sa, 15.08. 20:50 1014 keine Meldung
Sa, 15.08. 20:40 1014 keine Meldung
Sa, 15.08. 20:30 1014 + 0,3
Sa, 15.08. 20:00 1013 + 0,2
Sa, 15.08. 19:30 1013 + 0,1
Sa, 15.08. 19:00 1013 - 0,1
Sa, 15.08. 18:30 1013 + 0,1
Ortszeit Schneehöhe (cm)
Sa, 15.08. 20:00 -
Sa, 15.08. 14:00 -
Sa, 15.08. 8:00 -
Sa, 15.08. 2:00 -
Fr, 14.08. 20:00 -
Fr, 14.08. 14:00 -
Fr, 14.08. 8:00 -
Fr, 14.08. 2:00 -
Ortszeit Schneehöhe (cm)
Sa, 15.08. 21:30 -
Sa, 15.08. 21:20 -
Sa, 15.08. 21:10 -
Sa, 15.08. 21:00 -
Sa, 15.08. 20:50 -
Sa, 15.08. 20:40 -
Sa, 15.08. 20:30 -
Sa, 15.08. 20:00 -
Sa, 15.08. 19:30 -
Sa, 15.08. 19:00 -
Sa, 15.08. 18:30 -
Link zu dieser Seite / Seite empfehlen

Das Wetter in ...